Haskell, Texas
Current Conditions -  °F | °C
As of 2:52 AM on Wednesday 22 Oct 2014 (Local Time) from KABI Reporting Station
Clear Clear  
Wind Chill: 64°   Ceiling: Unl
Heat Index: 64°   Visibility: 10mi
Dew Point: 49°   Wind: 10mph
Humidity: 58%   Direction: 160°SSE
Pressure: 30.08"   Gusts: NA
Location:  33.16°N, 99.73°W
Report Text: KABI 220752Z 16009KT 10SM CLR 18/09 A3008 RMK AO2 SLP162 T01780094
Loading
Personal Weather Stations






























Interactive Weather Map
Tropical Storm Tracking
New forecast layout! Learn more

10-Day Weather Forecast

Advertisements
Track Severe Weather on mobile